createdAt,value
2023-03-30T00:00:20.184Z,68.52
2023-03-30T00:02:53.878Z,68.25
2023-03-30T00:05:25.997Z,68.53
2023-03-30T00:07:58.276Z,68.48
2023-03-30T00:10:30.069Z,68.20
2023-03-30T00:13:02.077Z,67.66
2023-03-30T00:15:36.178Z,67.77
2023-03-30T00:18:09.372Z,68.28
2023-03-30T00:20:43.414Z,67.56
2023-03-30T00:23:15.645Z,67.87
2023-03-30T00:25:47.221Z,68.04
2023-03-30T00:28:18.764Z,67.90
2023-03-30T00:30:50.484Z,67.97
2023-03-30T00:33:33.589Z,67.49
2023-03-30T00:36:09.219Z,67.57
2023-03-30T00:38:41.076Z,67.67
2023-03-30T00:41:13.078Z,67.35
2023-03-30T00:43:59.249Z,67.19
2023-03-30T00:46:31.738Z,67.55
2023-03-30T00:49:08.956Z,67.40
2023-03-30T00:51:42.411Z,67.34
2023-03-30T00:54:19.007Z,67.21
2023-03-30T00:56:51.229Z,66.91
2023-03-30T00:59:22.955Z,66.92
2023-03-30T01:01:55.364Z,67.45
2023-03-30T01:04:28.366Z,67.45
2023-03-30T01:07:00.931Z,67.51
2023-03-30T01:09:32.487Z,67.26
2023-03-30T01:12:05.309Z,67.00
2023-03-30T01:14:38.543Z,66.95
2023-03-30T01:17:28.268Z,67.23
2023-03-30T01:20:30.611Z,67.36
2023-03-30T01:23:39.510Z,66.87
2023-03-30T01:26:18.055Z,66.83
2023-03-30T01:29:06.068Z,66.52
2023-03-30T01:31:53.074Z,66.54
2023-03-30T01:34:43.001Z,66.66
2023-03-30T01:37:40.622Z,66.22
2023-03-30T01:40:27.963Z,66.34
2023-03-30T01:43:11.228Z,66.55
2023-03-30T01:45:44.887Z,66.40
2023-03-30T01:48:35.722Z,66.47
2023-03-30T01:51:11.514Z,67.35
2023-03-30T01:53:55.340Z,66.43
2023-03-30T01:56:33.107Z,66.10
2023-03-30T01:59:10.582Z,66.08
2023-03-30T02:01:51.013Z,66.39
2023-03-30T02:04:24.570Z,66.32
2023-03-30T02:07:01.017Z,66.47
2023-03-30T02:09:36.443Z,66.30
2023-03-30T02:12:10.497Z,65.94
2023-03-30T02:14:42.624Z,66.23
2023-03-30T02:17:18.266Z,65.78
2023-03-30T02:19:50.976Z,65.69
2023-03-30T02:22:23.894Z,66.07
2023-03-30T02:24:57.834Z,65.61
2023-03-30T02:27:29.762Z,65.41
2023-03-30T02:30:01.692Z,65.10
2023-03-30T02:32:45.843Z,65.78
2023-03-30T02:35:50.127Z,66.65
2023-03-30T02:38:35.332Z,67.53
2023-03-30T02:41:28.393Z,68.78
2023-03-30T02:44:17.756Z,70.42
2023-03-30T02:47:18.133Z,71.20
2023-03-30T02:49:59.984Z,71.73
2023-03-30T02:53:23.474Z,72.02
2023-03-30T02:56:08.910Z,70.74
2023-03-30T02:59:05.120Z,71.18
2023-03-30T03:01:50.726Z,70.97
2023-03-30T03:04:23.560Z,71.06
2023-03-30T03:06:55.800Z,71.98
2023-03-30T03:09:29.884Z,72.03
2023-03-30T03:12:01.438Z,73.70
2023-03-30T03:14:32.929Z,74.71
2023-03-30T03:17:05.829Z,76.26
2023-03-30T03:19:37.388Z,76.48
2023-03-30T03:22:08.870Z,78.18
2023-03-30T03:24:40.751Z,78.97
2023-03-30T03:27:12.308Z,78.84
2023-03-30T03:29:43.813Z,79.64
2023-03-30T03:32:17.713Z,79.32
2023-03-30T03:34:49.228Z,80.29
2023-03-30T03:37:20.871Z,80.72
2023-03-30T03:39:52.433Z,81.90
2023-03-30T03:42:24.077Z,82.37
2023-03-30T03:44:55.723Z,85.38
2023-03-30T03:47:27.299Z,85.64
2023-03-30T03:49:59.566Z,86.96
2023-03-30T03:52:31.231Z,86.50
2023-03-30T03:55:04.517Z,86.55
2023-03-30T03:57:36.986Z,86.25
2023-03-30T04:00:16.365Z,86.56
2023-03-30T04:02:47.975Z,89.80
2023-03-30T04:05:19.540Z,90.16
2023-03-30T04:07:53.481Z,92.03
2023-03-30T04:10:25.384Z,90.37
2023-03-30T04:12:57.849Z,91.01
2023-03-30T04:15:29.344Z,91.45
2023-03-30T04:18:01.770Z,94.18
2023-03-30T04:20:33.367Z,94.01
2023-03-30T04:23:04.891Z,94.72
2023-03-30T04:25:36.527Z,95.97
2023-03-30T04:28:08.215Z,95.49
2023-03-30T04:30:40.988Z,96.69
2023-03-30T04:33:14.569Z,95.84
2023-03-30T04:35:46.189Z,97.07
2023-03-30T04:38:22.240Z,97.52
2023-03-30T04:40:55.158Z,99.06
2023-03-30T04:43:26.761Z,99.82
2023-03-30T04:45:58.346Z,100.00
2023-03-30T04:48:29.851Z,100.00
2023-03-30T04:51:01.627Z,100.00
2023-03-30T04:53:34.816Z,100.00
2023-03-30T04:56:06.677Z,100.00
2023-03-30T04:58:38.227Z,100.00
2023-03-30T05:01:10.288Z,100.00
2023-03-30T05:03:41.835Z,100.00
2023-03-30T05:06:13.474Z,100.00
2023-03-30T05:08:45.000Z,100.00
2023-03-30T05:11:16.543Z,100.00
2023-03-30T05:13:51.176Z,100.00
2023-03-30T05:16:22.858Z,100.00
2023-03-30T05:18:54.382Z,100.00
2023-03-30T05:21:26.180Z,100.00
2023-03-30T05:23:58.295Z,100.00
2023-03-30T05:26:30.573Z,100.00
2023-03-30T05:29:02.163Z,100.00
2023-03-30T05:31:33.775Z,100.00
2023-03-30T05:34:05.877Z,100.00
2023-03-30T05:36:38.077Z,100.00
2023-03-30T05:39:09.922Z,100.00
2023-03-30T05:41:41.483Z,100.00
2023-03-30T05:44:13.015Z,100.00
2023-03-30T05:46:44.817Z,100.00
2023-03-30T05:49:16.481Z,100.00
2023-03-30T05:51:48.122Z,100.00
2023-03-30T05:54:19.882Z,100.00
2023-03-30T05:56:52.514Z,100.00
2023-03-30T05:59:24.513Z,100.00
2023-03-30T06:01:56.379Z,100.00
2023-03-30T06:04:28.170Z,100.00
2023-03-30T06:06:59.730Z,100.00
2023-03-30T06:09:31.906Z,100.00
2023-03-30T06:12:04.292Z,100.00
2023-03-30T06:14:35.711Z,100.00
2023-03-30T06:17:08.721Z,100.00
2023-03-30T06:19:41.675Z,100.00
2023-03-30T06:22:13.271Z,100.00
2023-03-30T06:24:44.748Z,100.00
2023-03-30T06:27:16.302Z,100.00
2023-03-30T06:29:47.852Z,100.00
2023-03-30T06:32:19.460Z,100.00
2023-03-30T06:34:51.050Z,100.00
2023-03-30T06:37:23.090Z,100.00
2023-03-30T06:39:54.713Z,100.00
2023-03-30T06:42:27.897Z,100.00
2023-03-30T06:44:59.406Z,100.00
2023-03-30T06:47:30.995Z,100.00
2023-03-30T06:50:03.658Z,100.00
2023-03-30T06:52:36.408Z,100.00
2023-03-30T06:55:08.211Z,100.00
2023-03-30T06:57:39.859Z,100.00
2023-03-30T07:00:13.872Z,100.00
2023-03-30T07:02:45.509Z,100.00
2023-03-30T07:05:17.319Z,100.00
2023-03-30T07:07:48.937Z,100.00
2023-03-30T07:10:21.371Z,99.63
2023-03-30T07:12:53.172Z,98.27
2023-03-30T07:15:24.814Z,98.33
2023-03-30T07:17:56.412Z,97.29
2023-03-30T07:20:28.090Z,97.25
2023-03-30T07:22:59.606Z,97.27
2023-03-30T07:25:31.594Z,97.80
2023-03-30T07:28:06.291Z,96.39
2023-03-30T07:30:39.050Z,96.53
2023-03-30T07:33:11.455Z,96.77
2023-03-30T07:35:44.978Z,96.38
2023-03-30T07:38:16.574Z,96.04
2023-03-30T07:40:48.568Z,96.33
2023-03-30T07:43:20.078Z,95.97
2023-03-30T07:45:51.997Z,96.14
2023-03-30T07:48:23.752Z,96.29
2023-03-30T07:51:03.671Z,95.86
2023-03-30T07:53:36.629Z,95.60
2023-03-30T07:56:08.313Z,95.97
2023-03-30T07:58:40.501Z,95.07
2023-03-30T08:01:13.195Z,94.44
2023-03-30T08:03:48.652Z,93.55
2023-03-30T08:06:20.345Z,94.19
2023-03-30T08:08:52.506Z,94.47
2023-03-30T08:11:24.083Z,93.88
2023-03-30T08:13:55.624Z,92.54
2023-03-30T08:16:27.309Z,92.96
2023-03-30T08:18:58.910Z,92.09
2023-03-30T08:21:30.454Z,92.36
2023-03-30T08:24:02.149Z,92.37
2023-03-30T08:26:33.807Z,90.30
2023-03-30T08:29:07.032Z,90.22
2023-03-30T08:31:41.718Z,90.36
2023-03-30T08:34:13.574Z,89.17
2023-03-30T08:36:45.103Z,88.88
2023-03-30T08:39:16.834Z,88.68
2023-03-30T08:42:21.253Z,87.47
2023-03-30T08:44:57.137Z,87.35
2023-03-30T08:47:42.076Z,87.97
2023-03-30T08:50:32.200Z,87.72
2023-03-30T08:53:06.104Z,88.29
2023-03-30T08:55:47.125Z,86.86
2023-03-30T08:58:26.411Z,86.63
2023-03-30T09:01:25.239Z,87.32
2023-03-30T09:04:18.957Z,84.48
2023-03-30T09:06:53.753Z,83.15
2023-03-30T09:09:30.130Z,82.21
2023-03-30T09:12:11.865Z,81.61
2023-03-30T09:15:05.494Z,80.18
2023-03-30T09:17:39.136Z,79.90
2023-03-30T09:20:23.988Z,79.36
2023-03-30T09:22:59.775Z,79.91
2023-03-30T09:25:53.608Z,78.44
2023-03-30T09:28:59.199Z,77.34
2023-03-30T09:31:41.290Z,77.27
2023-03-30T09:34:27.371Z,72.28
2023-03-30T09:37:09.395Z,71.54
2023-03-30T09:39:41.488Z,70.24
2023-03-30T09:42:22.000Z,69.13
2023-03-30T09:45:25.446Z,67.00
2023-03-30T09:47:57.003Z,67.02
2023-03-30T09:50:29.245Z,65.62
2023-03-30T09:53:07.184Z,64.77
2023-03-30T09:55:38.756Z,65.42
2023-03-30T09:58:14.997Z,66.28
2023-03-30T10:01:00.737Z,66.74
2023-03-30T10:03:33.123Z,67.15
2023-03-30T10:06:08.141Z,68.48
2023-03-30T10:08:49.931Z,66.85
2023-03-30T10:11:35.397Z,64.64
2023-03-30T10:14:23.548Z,64.73
2023-03-30T10:16:56.277Z,64.94
2023-03-30T10:19:29.798Z,63.06
2023-03-30T10:22:04.929Z,62.93
2023-03-30T10:24:49.428Z,62.77
2023-03-30T10:27:34.032Z,61.38
2023-03-30T10:30:12.169Z,61.89
2023-03-30T10:32:46.852Z,61.86
2023-03-30T10:35:23.629Z,62.36
2023-03-30T10:37:56.808Z,62.44
2023-03-30T10:40:37.685Z,63.64
2023-03-30T10:43:15.759Z,65.20
2023-03-30T10:45:50.006Z,65.11
2023-03-30T10:49:00.287Z,65.52
2023-03-30T10:52:08.710Z,67.66
2023-03-30T10:54:48.801Z,68.91
2023-03-30T10:57:24.860Z,68.59
2023-03-30T11:00:15.502Z,69.27
2023-03-30T11:02:57.366Z,69.25
2023-03-30T11:05:35.933Z,69.65
2023-03-30T11:08:12.587Z,68.73
2023-03-30T11:10:48.023Z,69.13
2023-03-30T11:13:40.226Z,70.67
2023-03-30T11:16:33.449Z,71.58
2023-03-30T11:19:18.616Z,73.16
2023-03-30T11:21:59.564Z,75.64
2023-03-30T11:24:35.817Z,78.40
2023-03-30T11:27:29.319Z,79.11
2023-03-30T11:30:14.439Z,81.65
2023-03-30T11:33:04.637Z,80.52
2023-03-30T11:35:58.104Z,80.61
2023-03-30T11:38:44.588Z,80.18
2023-03-30T11:41:23.494Z,79.53
2023-03-30T11:43:56.219Z,79.21
2023-03-30T11:46:42.289Z,81.06
2023-03-30T11:49:25.782Z,83.39
2023-03-30T11:52:22.716Z,84.76
2023-03-30T11:55:29.787Z,87.08
2023-03-30T11:58:14.701Z,90.81
2023-03-30T12:01:15.304Z,91.82
2023-03-30T12:03:52.156Z,94.82
2023-03-30T12:06:32.366Z,95.15
2023-03-30T12:09:11.465Z,96.00
2023-03-30T12:11:54.960Z,95.43
2023-03-30T12:14:40.094Z,95.57
2023-03-30T12:18:10.809Z,96.11
2023-03-30T12:21:10.226Z,96.39
2023-03-30T12:23:55.935Z,97.12
2023-03-30T12:26:34.463Z,97.39
2023-03-30T12:29:52.784Z,95.61
2023-03-30T12:32:07.389Z,94.65
2023-03-30T12:34:41.608Z,95.50
2023-03-30T12:37:24.142Z,93.92
2023-03-30T12:40:29.484Z,93.94
2023-03-30T12:43:14.857Z,91.81
2023-03-30T12:46:03.469Z,91.47
2023-03-30T12:49:10.861Z,91.76
2023-03-30T12:51:51.461Z,91.36
2023-03-30T12:54:26.036Z,91.49
2023-03-30T12:57:36.628Z,92.42
2023-03-30T13:00:26.229Z,93.21
2023-03-30T13:03:05.556Z,94.32
2023-03-30T13:05:42.914Z,94.38
2023-03-30T13:08:39.110Z,94.69
2023-03-30T13:11:18.904Z,95.91
2023-03-30T13:14:01.472Z,94.86
2023-03-30T13:17:10.826Z,95.36
2023-03-30T13:19:45.602Z,94.98
2023-03-30T13:22:18.688Z,94.41
2023-03-30T13:24:55.369Z,95.04
2023-03-30T13:27:35.593Z,95.14
2023-03-30T13:30:07.793Z,97.03
2023-03-30T13:32:42.632Z,95.95
2023-03-30T13:35:39.159Z,94.41
2023-03-30T13:38:20.080Z,93.52
2023-03-30T13:41:05.171Z,94.42
2023-03-30T13:44:04.320Z,94.86
2023-03-30T13:46:52.556Z,95.92
2023-03-30T13:50:05.622Z,95.24
2023-03-30T13:52:47.170Z,97.06
2023-03-30T13:55:33.326Z,96.98
2023-03-30T13:58:16.053Z,96.66
2023-03-30T14:00:50.489Z,97.31
2023-03-30T14:03:42.163Z,97.29
2023-03-30T14:06:14.333Z,97.35
2023-03-30T14:08:49.054Z,97.70
2023-03-30T14:11:24.140Z,97.79
2023-03-30T14:13:55.733Z,97.20
2023-03-30T14:16:34.065Z,98.39
2023-03-30T14:19:35.857Z,97.54
2023-03-30T14:22:19.844Z,96.82
2023-03-30T14:25:02.863Z,97.28
2023-03-30T14:27:39.884Z,97.06
2023-03-30T14:30:30.759Z,95.51
2023-03-30T14:33:10.432Z,95.35
2023-03-30T14:36:15.382Z,94.68
2023-03-30T14:38:49.579Z,94.65
2023-03-30T14:41:31.523Z,94.19
2023-03-30T14:44:08.549Z,92.13
2023-03-30T14:46:43.125Z,91.42
2023-03-30T14:49:28.087Z,91.17
2023-03-30T14:52:15.031Z,88.95
2023-03-30T14:55:05.317Z,88.46
2023-03-30T14:57:40.388Z,85.67
2023-03-30T15:00:21.090Z,84.36
2023-03-30T15:02:58.972Z,85.89
2023-03-30T15:05:37.160Z,86.27
2023-03-30T15:08:24.970Z,85.77
2023-03-30T15:11:09.543Z,87.75
2023-03-30T15:13:52.946Z,87.04
2023-03-30T15:16:28.707Z,87.71
2023-03-30T15:19:10.799Z,87.74
2023-03-30T15:21:43.227Z,85.71
2023-03-30T15:24:21.574Z,86.78
2023-03-30T15:26:58.480Z,86.23
2023-03-30T15:29:30.172Z,84.15
2023-03-30T15:32:07.179Z,84.75
2023-03-30T15:35:01.230Z,84.33
2023-03-30T15:37:35.148Z,83.14
2023-03-30T15:40:26.569Z,80.92
2023-03-30T15:43:16.357Z,74.54
2023-03-30T15:46:13.879Z,73.67
2023-03-30T15:48:50.597Z,74.67
2023-03-30T15:51:40.076Z,75.38
2023-03-30T15:54:35.984Z,76.58
2023-03-30T15:57:11.163Z,76.58
2023-03-30T15:59:52.285Z,73.94
2023-03-30T16:02:37.863Z,69.08
2023-03-30T16:05:18.215Z,63.49
2023-03-30T16:07:50.233Z,62.04
2023-03-30T16:10:28.358Z,60.65
2023-03-30T16:13:01.367Z,61.64
2023-03-30T16:15:33.840Z,61.64
2023-03-30T16:18:05.987Z,62.72
2023-03-30T16:20:37.408Z,64.61
2023-03-30T16:23:09.301Z,65.72
2023-03-30T16:25:45.194Z,66.57
2023-03-30T16:28:18.486Z,67.54
2023-03-30T16:30:52.545Z,71.71
2023-03-30T16:33:24.500Z,71.10
2023-03-30T16:35:56.084Z,72.15
2023-03-30T16:38:27.622Z,72.75
2023-03-30T16:40:59.915Z,73.11
2023-03-30T16:43:31.752Z,73.26
2023-03-30T16:46:03.350Z,73.56
2023-03-30T16:48:35.003Z,74.42
2023-03-30T16:51:08.086Z,75.14
2023-03-30T16:53:40.768Z,75.29
2023-03-30T16:56:19.599Z,75.67
2023-03-30T16:58:51.401Z,76.61
2023-03-30T17:01:23.581Z,76.34
2023-03-30T17:03:55.125Z,77.06
2023-03-30T17:06:26.637Z,76.66
2023-03-30T17:08:58.168Z,76.83
2023-03-30T17:11:29.758Z,75.97
2023-03-30T17:14:01.243Z,76.16
2023-03-30T17:16:34.186Z,78.33
2023-03-30T17:19:06.521Z,77.82
2023-03-30T17:21:37.965Z,77.79
2023-03-30T17:24:10.632Z,78.06
2023-03-30T17:26:42.481Z,78.27
2023-03-30T17:29:13.976Z,78.59
2023-03-30T17:31:46.096Z,78.86
2023-03-30T17:34:17.559Z,78.39
2023-03-30T17:36:49.130Z,77.78
2023-03-30T17:39:20.685Z,77.19
2023-03-30T17:41:52.231Z,77.62
2023-03-30T17:44:24.213Z,76.57
2023-03-30T17:46:56.666Z,76.82
2023-03-30T17:49:28.138Z,76.62
2023-03-30T17:51:59.704Z,75.77
2023-03-30T17:54:31.239Z,75.69
2023-03-30T17:57:04.455Z,74.97
2023-03-30T17:59:36.302Z,75.10
2023-03-30T18:02:08.733Z,74.73
2023-03-30T18:04:40.557Z,73.78
2023-03-30T18:07:12.653Z,74.43
2023-03-30T18:09:44.173Z,74.04
2023-03-30T18:12:16.238Z,74.20
2023-03-30T18:14:47.724Z,73.54
2023-03-30T18:17:19.275Z,73.16
2023-03-30T18:19:51.644Z,71.44
2023-03-30T18:22:23.214Z,71.76
2023-03-30T18:24:56.204Z,71.27
2023-03-30T18:27:27.741Z,71.71
2023-03-30T18:29:59.413Z,72.08
2023-03-30T18:32:44.270Z,72.91
2023-03-30T18:35:20.030Z,73.25
2023-03-30T18:37:55.687Z,73.40
2023-03-30T18:40:34.650Z,73.44
2023-03-30T18:43:06.529Z,73.41
2023-03-30T18:45:50.020Z,73.58
2023-03-30T18:48:22.637Z,73.48
2023-03-30T18:50:56.467Z,73.52
2023-03-30T18:53:33.371Z,73.42
2023-03-30T18:56:06.901Z,72.88
2023-03-30T18:58:41.934Z,73.09
2023-03-30T19:01:16.415Z,72.55
2023-03-30T19:03:49.782Z,73.16
2023-03-30T19:06:25.922Z,72.28
2023-03-30T19:08:57.470Z,72.36
2023-03-30T19:11:30.227Z,72.23
2023-03-30T19:14:09.669Z,72.80
2023-03-30T19:16:41.904Z,72.03
2023-03-30T19:19:15.821Z,72.31
2023-03-30T19:21:47.501Z,72.46
2023-03-30T19:24:20.449Z,72.34
2023-03-30T19:26:59.537Z,72.74
2023-03-30T19:29:31.247Z,72.43
2023-03-30T19:32:02.944Z,72.83
2023-03-30T19:34:36.533Z,72.54
2023-03-30T19:37:08.776Z,72.67
2023-03-30T19:39:40.194Z,72.84
2023-03-30T19:42:11.938Z,74.24
2023-03-30T19:44:46.494Z,72.85
2023-03-30T19:47:18.021Z,72.66
2023-03-30T19:49:49.531Z,73.30
2023-03-30T19:52:23.207Z,74.63
2023-03-30T19:54:54.937Z,74.28
2023-03-30T19:57:26.504Z,75.89
2023-03-30T19:59:59.716Z,76.16
2023-03-30T20:02:33.366Z,76.23
2023-03-30T20:05:06.888Z,79.09
2023-03-30T20:07:39.245Z,80.93
2023-03-30T20:10:12.694Z,81.99
2023-03-30T20:12:44.404Z,84.82
2023-03-30T20:15:18.357Z,84.31
2023-03-30T20:17:49.984Z,83.42
2023-03-30T20:20:25.897Z,82.84
2023-03-30T20:22:57.610Z,81.56
2023-03-30T20:25:29.577Z,81.96
2023-03-30T20:28:02.566Z,81.84
2023-03-30T20:30:37.347Z,82.50
2023-03-30T20:33:09.049Z,82.04
2023-03-30T20:35:41.744Z,83.04
2023-03-30T20:38:14.698Z,81.89
2023-03-30T20:41:00.102Z,81.08
2023-03-30T20:43:40.653Z,81.02
2023-03-30T20:46:22.034Z,79.45
2023-03-30T20:49:01.946Z,80.65
2023-03-30T20:51:34.755Z,80.76
2023-03-30T20:54:06.674Z,80.13
2023-03-30T20:56:38.382Z,80.27
2023-03-30T20:59:11.002Z,82.14
2023-03-30T21:01:43.998Z,81.49
2023-03-30T21:04:16.993Z,81.62
2023-03-30T21:06:49.842Z,81.99
2023-03-30T21:09:21.547Z,81.93
2023-03-30T21:11:53.198Z,81.48
2023-03-30T21:14:24.997Z,82.34
2023-03-30T21:16:56.555Z,82.01
2023-03-30T21:19:29.484Z,81.38
2023-03-30T21:22:01.294Z,82.22
2023-03-30T21:24:34.390Z,83.96
2023-03-30T21:27:08.434Z,84.51
2023-03-30T21:29:40.348Z,84.92
2023-03-30T21:32:11.927Z,84.89
2023-03-30T21:34:43.709Z,84.64
2023-03-30T21:37:15.436Z,84.39
2023-03-30T21:39:47.109Z,82.63
2023-03-30T21:42:18.744Z,83.15
2023-03-30T21:44:51.372Z,82.71
2023-03-30T21:47:23.047Z,82.48
2023-03-30T21:49:54.648Z,82.54
2023-03-30T21:52:26.394Z,82.72
2023-03-30T21:54:58.216Z,83.12
2023-03-30T21:57:30.430Z,82.72
2023-03-30T22:00:02.170Z,84.54
2023-03-30T22:02:33.820Z,84.92
2023-03-30T22:05:06.167Z,85.14
2023-03-30T22:07:37.559Z,85.83
2023-03-30T22:10:09.515Z,85.41
2023-03-30T22:12:41.463Z,85.80
2023-03-30T22:15:13.045Z,85.81
2023-03-30T22:17:45.908Z,86.25
2023-03-30T22:20:18.334Z,86.54
2023-03-30T22:22:49.984Z,85.83
2023-03-30T22:25:21.710Z,86.41
2023-03-30T22:27:57.915Z,86.68
2023-03-30T22:30:31.006Z,85.54
2023-03-30T22:33:02.735Z,86.12
2023-03-30T22:35:39.022Z,86.46
2023-03-30T22:38:11.854Z,85.47
2023-03-30T22:40:43.614Z,85.26
2023-03-30T22:43:15.119Z,84.55
2023-03-30T22:45:46.587Z,84.88
2023-03-30T22:48:17.933Z,86.70
2023-03-30T22:50:49.446Z,86.44
2023-03-30T22:53:20.847Z,86.70
2023-03-30T22:55:54.643Z,86.19
2023-03-30T22:58:27.382Z,85.80
2023-03-30T23:00:59.580Z,85.63
2023-03-30T23:03:31.420Z,85.02
2023-03-30T23:06:03.530Z,85.07
2023-03-30T23:08:36.926Z,85.31
2023-03-30T23:11:08.477Z,84.70
2023-03-30T23:13:42.121Z,85.50
2023-03-30T23:16:13.798Z,85.96
2023-03-30T23:18:45.219Z,85.64
2023-03-30T23:21:17.425Z,85.45
2023-03-30T23:23:48.829Z,85.47
2023-03-30T23:26:20.248Z,85.99
2023-03-30T23:28:52.685Z,85.22
2023-03-30T23:31:29.463Z,85.52
2023-03-30T23:34:00.947Z,85.07
2023-03-30T23:36:34.639Z,85.93
2023-03-30T23:39:06.000Z,85.92
2023-03-30T23:41:38.651Z,85.94
2023-03-30T23:44:10.575Z,86.26
2023-03-30T23:46:42.234Z,86.16
2023-03-30T23:49:15.870Z,84.96
2023-03-30T23:51:47.318Z,85.66
2023-03-30T23:54:18.744Z,84.93
2023-03-30T23:56:57.237Z,84.87
2023-03-30T23:59:28.806Z,85.18
